sensor_id;sensor_type;location;lat;lon;timestamp;P1;durP1;ratioP1;P2;durP2;ratioP2
18142;SDS011;9197;50.930;3.140;2023-04-22T00:02:18;37.83;;;27.47;;
18142;SDS011;9197;50.930;3.140;2023-04-22T00:04:47;41.80;;;28.37;;
18142;SDS011;9197;50.930;3.140;2023-04-22T00:07:15;39.60;;;28.13;;
18142;SDS011;9197;50.930;3.140;2023-04-22T00:09:42;34.97;;;27.43;;
18142;SDS011;9197;50.930;3.140;2023-04-22T00:12:11;37.50;;;28.67;;
18142;SDS011;9197;50.930;3.140;2023-04-22T00:14:38;40.37;;;28.57;;
18142;SDS011;9197;50.930;3.140;2023-04-22T00:17:05;40.33;;;29.87;;
18142;SDS011;9197;50.930;3.140;2023-04-22T00:19:33;39.77;;;29.50;;
18142;SDS011;9197;50.930;3.140;2023-04-22T00:22:01;37.23;;;27.80;;
18142;SDS011;9197;50.930;3.140;2023-04-22T00:24:28;38.67;;;28.73;;
18142;SDS011;9197;50.930;3.140;2023-04-22T00:26:56;38.37;;;26.97;;
18142;SDS011;9197;50.930;3.140;2023-04-22T00:29:26;48.93;;;28.20;;
18142;SDS011;9197;50.930;3.140;2023-04-22T00:31:53;39.07;;;27.97;;
18142;SDS011;9197;50.930;3.140;2023-04-22T00:34:20;36.60;;;28.03;;
18142;SDS011;9197;50.930;3.140;2023-04-22T00:36:48;37.83;;;29.20;;
18142;SDS011;9197;50.930;3.140;2023-04-22T00:39:15;37.10;;;28.37;;
18142;SDS011;9197;50.930;3.140;2023-04-22T00:41:42;41.20;;;29.17;;
18142;SDS011;9197;50.930;3.140;2023-04-22T00:44:10;39.43;;;27.80;;
18142;SDS011;9197;50.930;3.140;2023-04-22T00:46:38;39.93;;;28.40;;
18142;SDS011;9197;50.930;3.140;2023-04-22T00:49:06;36.40;;;26.20;;
18142;SDS011;9197;50.930;3.140;2023-04-22T00:51:33;41.17;;;28.47;;
18142;SDS011;9197;50.930;3.140;2023-04-22T00:54:01;36.20;;;26.80;;
18142;SDS011;9197;50.930;3.140;2023-04-22T00:56:30;40.87;;;28.40;;
18142;SDS011;9197;50.930;3.140;2023-04-22T00:58:57;38.10;;;28.80;;
18142;SDS011;9197;50.930;3.140;2023-04-22T01:01:25;37.10;;;28.57;;
18142;SDS011;9197;50.930;3.140;2023-04-22T01:03:54;39.13;;;28.90;;
18142;SDS011;9197;50.930;3.140;2023-04-22T01:06:22;39.37;;;31.13;;
18142;SDS011;9197;50.930;3.140;2023-04-22T01:08:50;45.23;;;30.23;;
18142;SDS011;9197;50.930;3.140;2023-04-22T01:11:18;40.63;;;29.33;;
18142;SDS011;9197;50.930;3.140;2023-04-22T01:13:45;39.87;;;28.30;;
18142;SDS011;9197;50.930;3.140;2023-04-22T01:16:12;41.23;;;31.07;;
18142;SDS011;9197;50.930;3.140;2023-04-22T01:18:40;44.27;;;32.30;;
18142;SDS011;9197;50.930;3.140;2023-04-22T01:21:09;46.80;;;32.77;;
18142;SDS011;9197;50.930;3.140;2023-04-22T01:23:38;39.03;;;29.43;;
18142;SDS011;9197;50.930;3.140;2023-04-22T01:26:06;43.60;;;30.47;;
18142;SDS011;9197;50.930;3.140;2023-04-22T01:28:33;40.93;;;30.10;;
18142;SDS011;9197;50.930;3.140;2023-04-22T01:31:00;41.20;;;30.43;;
18142;SDS011;9197;50.930;3.140;2023-04-22T01:33:28;39.60;;;31.07;;
18142;SDS011;9197;50.930;3.140;2023-04-22T01:35:55;43.77;;;31.77;;
18142;SDS011;9197;50.930;3.140;2023-04-22T01:38:22;41.57;;;30.37;;
18142;SDS011;9197;50.930;3.140;2023-04-22T01:40:51;44.10;;;31.53;;
18142;SDS011;9197;50.930;3.140;2023-04-22T01:43:19;44.57;;;32.40;;
18142;SDS011;9197;50.930;3.140;2023-04-22T01:45:46;48.90;;;35.50;;
18142;SDS011;9197;50.930;3.140;2023-04-22T01:48:13;42.70;;;31.13;;
18142;SDS011;9197;50.930;3.140;2023-04-22T01:50:40;50.13;;;34.60;;
18142;SDS011;9197;50.930;3.140;2023-04-22T01:53:07;45.60;;;33.07;;
18142;SDS011;9197;50.930;3.140;2023-04-22T01:55:36;45.47;;;31.23;;
18142;SDS011;9197;50.930;3.140;2023-04-22T01:58:05;39.67;;;29.53;;
18142;SDS011;9197;50.930;3.140;2023-04-22T02:00:32;44.80;;;30.83;;
18142;SDS011;9197;50.930;3.140;2023-04-22T02:02:59;39.87;;;31.00;;
18142;SDS011;9197;50.930;3.140;2023-04-22T02:05:26;44.70;;;33.63;;
18142;SDS011;9197;50.930;3.140;2023-04-22T02:07:53;41.57;;;31.93;;
18142;SDS011;9197;50.930;3.140;2023-04-22T02:10:21;49.03;;;32.93;;
18142;SDS011;9197;50.930;3.140;2023-04-22T02:12:48;46.27;;;33.03;;
18142;SDS011;9197;50.930;3.140;2023-04-22T02:15:17;40.83;;;30.33;;
18142;SDS011;9197;50.930;3.140;2023-04-22T02:17:44;45.30;;;30.90;;
18142;SDS011;9197;50.930;3.140;2023-04-22T02:20:11;43.33;;;31.33;;
18142;SDS011;9197;50.930;3.140;2023-04-22T02:22:38;50.10;;;35.67;;
18142;SDS011;9197;50.930;3.140;2023-04-22T02:25:07;57.40;;;36.60;;
18142;SDS011;9197;50.930;3.140;2023-04-22T02:27:34;53.67;;;37.20;;
18142;SDS011;9197;50.930;3.140;2023-04-22T02:30:02;57.33;;;39.70;;
18142;SDS011;9197;50.930;3.140;2023-04-22T02:32:31;67.37;;;43.33;;
18142;SDS011;9197;50.930;3.140;2023-04-22T02:34:59;58.83;;;40.37;;
18142;SDS011;9197;50.930;3.140;2023-04-22T02:37:27;54.80;;;37.57;;
18142;SDS011;9197;50.930;3.140;2023-04-22T02:39:54;55.77;;;39.47;;
18142;SDS011;9197;50.930;3.140;2023-04-22T02:42:22;53.47;;;37.10;;
18142;SDS011;9197;50.930;3.140;2023-04-22T02:44:49;59.77;;;38.50;;
18142;SDS011;9197;50.930;3.140;2023-04-22T02:47:16;62.67;;;41.27;;
18142;SDS011;9197;50.930;3.140;2023-04-22T02:49:45;55.23;;;38.73;;
18142;SDS011;9197;50.930;3.140;2023-04-22T02:52:12;48.83;;;37.57;;
18142;SDS011;9197;50.930;3.140;2023-04-22T02:54:39;55.77;;;40.30;;
18142;SDS011;9197;50.930;3.140;2023-04-22T02:57:06;63.10;;;39.17;;
18142;SDS011;9197;50.930;3.140;2023-04-22T02:59:34;52.07;;;38.80;;
18142;SDS011;9197;50.930;3.140;2023-04-22T03:02:01;52.30;;;37.73;;
18142;SDS011;9197;50.930;3.140;2023-04-22T03:04:31;58.03;;;38.27;;
18142;SDS011;9197;50.930;3.140;2023-04-22T03:06:59;53.93;;;38.80;;
18142;SDS011;9197;50.930;3.140;2023-04-22T03:09:27;55.50;;;37.93;;
18142;SDS011;9197;50.930;3.140;2023-04-22T03:11:54;56.20;;;39.13;;
18142;SDS011;9197;50.930;3.140;2023-04-22T03:14:21;53.30;;;37.13;;
18142;SDS011;9197;50.930;3.140;2023-04-22T03:16:48;51.23;;;35.90;;
18142;SDS011;9197;50.930;3.140;2023-04-22T03:19:15;55.07;;;38.57;;
18142;SDS011;9197;50.930;3.140;2023-04-22T03:21:43;51.43;;;37.07;;
18142;SDS011;9197;50.930;3.140;2023-04-22T03:24:11;51.17;;;37.50;;
18142;SDS011;9197;50.930;3.140;2023-04-22T03:26:38;50.50;;;38.43;;
18142;SDS011;9197;50.930;3.140;2023-04-22T03:29:06;53.60;;;37.30;;
18142;SDS011;9197;50.930;3.140;2023-04-22T03:31:33;58.73;;;40.17;;
18142;SDS011;9197;50.930;3.140;2023-04-22T03:34:01;55.20;;;38.43;;
18142;SDS011;9197;50.930;3.140;2023-04-22T03:36:29;55.77;;;38.87;;
18142;SDS011;9197;50.930;3.140;2023-04-22T03:38:56;61.83;;;42.60;;
18142;SDS011;9197;50.930;3.140;2023-04-22T03:41:24;63.93;;;42.43;;
18142;SDS011;9197;50.930;3.140;2023-04-22T03:43:51;68.10;;;41.53;;
18142;SDS011;9197;50.930;3.140;2023-04-22T03:46:19;61.33;;;40.90;;
18142;SDS011;9197;50.930;3.140;2023-04-22T03:48:46;64.97;;;40.70;;
18142;SDS011;9197;50.930;3.140;2023-04-22T03:51:13;55.83;;;40.87;;
18142;SDS011;9197;50.930;3.140;2023-04-22T03:53:40;62.27;;;42.53;;
18142;SDS011;9197;50.930;3.140;2023-04-22T03:56:08;56.83;;;41.07;;
18142;SDS011;9197;50.930;3.140;2023-04-22T03:58:36;61.67;;;42.73;;
18142;SDS011;9197;50.930;3.140;2023-04-22T04:01:03;68.00;;;43.90;;
18142;SDS011;9197;50.930;3.140;2023-04-22T04:03:31;58.53;;;41.30;;
18142;SDS011;9197;50.930;3.140;2023-04-22T04:06:02;58.00;;;40.50;;
18142;SDS011;9197;50.930;3.140;2023-04-22T04:08:29;56.13;;;38.57;;
18142;SDS011;9197;50.930;3.140;2023-04-22T04:10:56;61.60;;;41.73;;
18142;SDS011;9197;50.930;3.140;2023-04-22T04:13:23;60.47;;;40.43;;
18142;SDS011;9197;50.930;3.140;2023-04-22T04:15:55;64.80;;;39.87;;
18142;SDS011;9197;50.930;3.140;2023-04-22T04:18:24;63.93;;;40.50;;
18142;SDS011;9197;50.930;3.140;2023-04-22T04:20:54;63.47;;;42.33;;
18142;SDS011;9197;50.930;3.140;2023-04-22T04:23:21;60.50;;;40.93;;
18142;SDS011;9197;50.930;3.140;2023-04-22T04:25:49;65.00;;;44.43;;
18142;SDS011;9197;50.930;3.140;2023-04-22T04:28:16;61.47;;;43.73;;
18142;SDS011;9197;50.930;3.140;2023-04-22T04:30:43;61.50;;;42.17;;
18142;SDS011;9197;50.930;3.140;2023-04-22T04:33:12;61.50;;;41.63;;
18142;SDS011;9197;50.930;3.140;2023-04-22T04:35:40;61.10;;;42.60;;
18142;SDS011;9197;50.930;3.140;2023-04-22T04:38:08;58.57;;;42.07;;
18142;SDS011;9197;50.930;3.140;2023-04-22T04:40:36;65.47;;;42.33;;
18142;SDS011;9197;50.930;3.140;2023-04-22T04:43:04;63.23;;;40.83;;
18142;SDS011;9197;50.930;3.140;2023-04-22T04:45:32;63.03;;;43.07;;
18142;SDS011;9197;50.930;3.140;2023-04-22T04:48:00;68.33;;;45.20;;
18142;SDS011;9197;50.930;3.140;2023-04-22T04:50:29;63.00;;;44.07;;
18142;SDS011;9197;50.930;3.140;2023-04-22T04:52:56;67.20;;;45.23;;
18142;SDS011;9197;50.930;3.140;2023-04-22T04:55:23;69.63;;;46.13;;
18142;SDS011;9197;50.930;3.140;2023-04-22T04:57:50;68.13;;;44.90;;
18142;SDS011;9197;50.930;3.140;2023-04-22T05:00:17;69.67;;;45.33;;
18142;SDS011;9197;50.930;3.140;2023-04-22T05:02:45;68.87;;;46.43;;
18142;SDS011;9197;50.930;3.140;2023-04-22T05:05:12;74.67;;;48.93;;
18142;SDS011;9197;50.930;3.140;2023-04-22T05:07:41;72.47;;;46.80;;
18142;SDS011;9197;50.930;3.140;2023-04-22T05:10:08;71.97;;;47.90;;
18142;SDS011;9197;50.930;3.140;2023-04-22T05:12:36;74.80;;;49.47;;
18142;SDS011;9197;50.930;3.140;2023-04-22T05:15:03;72.97;;;49.17;;
18142;SDS011;9197;50.930;3.140;2023-04-22T05:17:30;70.57;;;46.57;;
18142;SDS011;9197;50.930;3.140;2023-04-22T05:19:58;73.73;;;49.17;;
18142;SDS011;9197;50.930;3.140;2023-04-22T05:22:25;79.20;;;49.03;;
18142;SDS011;9197;50.930;3.140;2023-04-22T05:24:53;72.80;;;46.60;;
18142;SDS011;9197;50.930;3.140;2023-04-22T05:27:21;76.77;;;49.20;;
18142;SDS011;9197;50.930;3.140;2023-04-22T05:29:48;75.77;;;48.10;;
18142;SDS011;9197;50.930;3.140;2023-04-22T05:32:15;75.50;;;48.27;;
18142;SDS011;9197;50.930;3.140;2023-04-22T05:34:42;76.97;;;49.20;;
18142;SDS011;9197;50.930;3.140;2023-04-22T05:37:10;75.13;;;47.07;;
18142;SDS011;9197;50.930;3.140;2023-04-22T05:39:37;71.20;;;47.87;;
18142;SDS011;9197;50.930;3.140;2023-04-22T05:42:06;68.17;;;46.63;;
18142;SDS011;9197;50.930;3.140;2023-04-22T05:44:33;66.03;;;44.13;;
18142;SDS011;9197;50.930;3.140;2023-04-22T05:47:00;66.27;;;43.37;;
18142;SDS011;9197;50.930;3.140;2023-04-22T05:49:27;76.07;;;48.87;;
18142;SDS011;9197;50.930;3.140;2023-04-22T05:51:55;69.03;;;45.13;;
18142;SDS011;9197;50.930;3.140;2023-04-22T05:54:22;66.27;;;45.43;;
18142;SDS011;9197;50.930;3.140;2023-04-22T05:56:49;64.33;;;43.87;;
18142;SDS011;9197;50.930;3.140;2023-04-22T05:59:18;65.97;;;45.23;;
18142;SDS011;9197;50.930;3.140;2023-04-22T06:01:45;63.73;;;45.47;;
18142;SDS011;9197;50.930;3.140;2023-04-22T06:04:12;62.87;;;45.53;;
18142;SDS011;9197;50.930;3.140;2023-04-22T06:06:39;55.40;;;43.17;;
18142;SDS011;9197;50.930;3.140;2023-04-22T06:09:07;63.87;;;45.33;;
18142;SDS011;9197;50.930;3.140;2023-04-22T06:11:34;67.73;;;46.67;;
18142;SDS011;9197;50.930;3.140;2023-04-22T06:14:01;72.43;;;45.93;;
18142;SDS011;9197;50.930;3.140;2023-04-22T06:16:30;67.00;;;45.47;;
18142;SDS011;9197;50.930;3.140;2023-04-22T06:18:57;60.17;;;45.07;;
18142;SDS011;9197;50.930;3.140;2023-04-22T06:21:24;62.50;;;43.33;;
18142;SDS011;9197;50.930;3.140;2023-04-22T06:23:52;63.70;;;47.27;;
18142;SDS011;9197;50.930;3.140;2023-04-22T06:26:20;58.23;;;45.13;;
18142;SDS011;9197;50.930;3.140;2023-04-22T06:28:47;59.63;;;45.30;;
18142;SDS011;9197;50.930;3.140;2023-04-22T06:31:14;55.73;;;42.80;;
18142;SDS011;9197;50.930;3.140;2023-04-22T06:33:43;54.83;;;40.43;;
18142;SDS011;9197;50.930;3.140;2023-04-22T06:36:11;52.73;;;39.73;;
18142;SDS011;9197;50.930;3.140;2023-04-22T06:38:39;57.03;;;41.83;;
18142;SDS011;9197;50.930;3.140;2023-04-22T06:41:06;55.97;;;41.20;;
18142;SDS011;9197;50.930;3.140;2023-04-22T06:43:33;56.43;;;41.13;;
18142;SDS011;9197;50.930;3.140;2023-04-22T06:46:00;58.60;;;41.93;;
18142;SDS011;9197;50.930;3.140;2023-04-22T06:48:27;57.93;;;42.60;;
18142;SDS011;9197;50.930;3.140;2023-04-22T06:50:56;51.30;;;40.80;;
18142;SDS011;9197;50.930;3.140;2023-04-22T06:53:24;48.93;;;40.33;;
18142;SDS011;9197;50.930;3.140;2023-04-22T06:55:52;49.90;;;37.57;;
18142;SDS011;9197;50.930;3.140;2023-04-22T06:58:19;54.27;;;41.73;;
18142;SDS011;9197;50.930;3.140;2023-04-22T07:00:47;50.23;;;40.60;;
18142;SDS011;9197;50.930;3.140;2023-04-22T07:03:14;47.37;;;37.03;;
18142;SDS011;9197;50.930;3.140;2023-04-22T07:05:41;53.13;;;39.20;;
18142;SDS011;9197;50.930;3.140;2023-04-22T07:08:10;50.43;;;39.40;;
18142;SDS011;9197;50.930;3.140;2023-04-22T07:10:37;51.67;;;39.80;;
18142;SDS011;9197;50.930;3.140;2023-04-22T07:13:04;56.07;;;40.00;;
18142;SDS011;9197;50.930;3.140;2023-04-22T07:15:31;51.00;;;38.57;;
18142;SDS011;9197;50.930;3.140;2023-04-22T07:17:59;51.60;;;40.23;;
18142;SDS011;9197;50.930;3.140;2023-04-22T07:20:26;49.50;;;39.33;;
18142;SDS011;9197;50.930;3.140;2023-04-22T07:22:53;45.03;;;37.60;;
18142;SDS011;9197;50.930;3.140;2023-04-22T07:25:22;52.93;;;39.77;;
18142;SDS011;9197;50.930;3.140;2023-04-22T07:27:49;52.60;;;39.67;;
18142;SDS011;9197;50.930;3.140;2023-04-22T07:30:16;43.90;;;36.10;;
18142;SDS011;9197;50.930;3.140;2023-04-22T07:32:43;42.33;;;35.10;;
18142;SDS011;9197;50.930;3.140;2023-04-22T07:35:11;40.47;;;33.97;;
18142;SDS011;9197;50.930;3.140;2023-04-22T07:37:38;38.10;;;32.17;;
18142;SDS011;9197;50.930;3.140;2023-04-22T07:40:06;38.50;;;31.33;;
18142;SDS011;9197;50.930;3.140;2023-04-22T07:42:37;35.67;;;31.77;;
18142;SDS011;9197;50.930;3.140;2023-04-22T07:45:05;36.63;;;31.57;;
18142;SDS011;9197;50.930;3.140;2023-04-22T07:47:33;39.23;;;31.53;;
18142;SDS011;9197;50.930;3.140;2023-04-22T07:50:01;34.00;;;29.43;;
18142;SDS011;9197;50.930;3.140;2023-04-22T07:52:28;35.57;;;30.80;;
18142;SDS011;9197;50.930;3.140;2023-04-22T07:54:55;33.80;;;29.07;;
18142;SDS011;9197;50.930;3.140;2023-04-22T07:57:22;34.63;;;27.93;;
18142;SDS011;9197;50.930;3.140;2023-04-22T07:59:51;32.27;;;28.83;;
18142;SDS011;9197;50.930;3.140;2023-04-22T08:02:18;33.10;;;29.53;;
18142;SDS011;9197;50.930;3.140;2023-04-22T08:04:46;32.83;;;29.20;;
18142;SDS011;9197;50.930;3.140;2023-04-22T08:07:13;33.33;;;28.77;;
18142;SDS011;9197;50.930;3.140;2023-04-22T08:09:40;33.43;;;29.27;;
18142;SDS011;9197;50.930;3.140;2023-04-22T08:12:07;34.50;;;30.30;;
18142;SDS011;9197;50.930;3.140;2023-04-22T08:14:34;34.47;;;29.50;;
18142;SDS011;9197;50.930;3.140;2023-04-22T08:17:03;34.50;;;30.47;;
18142;SDS011;9197;50.930;3.140;2023-04-22T08:19:30;38.50;;;30.03;;
18142;SDS011;9197;50.930;3.140;2023-04-22T08:21:57;37.67;;;30.13;;
18142;SDS011;9197;50.930;3.140;2023-04-22T08:24:25;33.03;;;29.27;;
18142;SDS011;9197;50.930;3.140;2023-04-22T08:26:52;33.23;;;29.60;;
18142;SDS011;9197;50.930;3.140;2023-04-22T08:29:19;35.63;;;30.70;;
18142;SDS011;9197;50.930;3.140;2023-04-22T08:31:47;35.30;;;31.50;;
18142;SDS011;9197;50.930;3.140;2023-04-22T08:34:15;34.63;;;30.73;;
18142;SDS011;9197;50.930;3.140;2023-04-22T08:36:42;32.90;;;29.40;;
18142;SDS011;9197;50.930;3.140;2023-04-22T08:39:10;36.43;;;32.63;;
18142;SDS011;9197;50.930;3.140;2023-04-22T08:41:37;36.67;;;32.07;;
18142;SDS011;9197;50.930;3.140;2023-04-22T08:44:04;34.27;;;30.57;;
18142;SDS011;9197;50.930;3.140;2023-04-22T08:46:32;34.03;;;30.43;;
18142;SDS011;9197;50.930;3.140;2023-04-22T08:48:59;32.00;;;28.57;;
18142;SDS011;9197;50.930;3.140;2023-04-22T08:51:28;33.57;;;29.93;;
18142;SDS011;9197;50.930;3.140;2023-04-22T08:53:58;41.43;;;31.03;;
18142;SDS011;9197;50.930;3.140;2023-04-22T08:56:25;34.30;;;29.47;;
18142;SDS011;9197;50.930;3.140;2023-04-22T08:58:53;32.80;;;29.30;;
18142;SDS011;9197;50.930;3.140;2023-04-22T09:01:20;32.73;;;29.23;;
18142;SDS011;9197;50.930;3.140;2023-04-22T09:03:48;40.43;;;33.30;;
18142;SDS011;9197;50.930;3.140;2023-04-22T09:06:15;34.53;;;30.97;;
18142;SDS011;9197;50.930;3.140;2023-04-22T09:08:44;31.30;;;27.53;;
18142;SDS011;9197;50.930;3.140;2023-04-22T09:11:12;36.90;;;27.73;;
18142;SDS011;9197;50.930;3.140;2023-04-22T09:13:39;32.37;;;28.20;;
18142;SDS011;9197;50.930;3.140;2023-04-22T09:16:06;37.13;;;31.03;;
18142;SDS011;9197;50.930;3.140;2023-04-22T09:18:38;35.17;;;28.03;;
18142;SDS011;9197;50.930;3.140;2023-04-22T09:21:06;35.07;;;26.97;;
18142;SDS011;9197;50.930;3.140;2023-04-22T09:23:33;31.80;;;27.13;;
18142;SDS011;9197;50.930;3.140;2023-04-22T09:26:02;38.17;;;29.10;;
18142;SDS011;9197;50.930;3.140;2023-04-22T09:28:29;37.90;;;31.03;;
18142;SDS011;9197;50.930;3.140;2023-04-22T09:30:59;34.27;;;29.83;;
18142;SDS011;9197;50.930;3.140;2023-04-22T09:33:26;34.67;;;29.97;;
18142;SDS011;9197;50.930;3.140;2023-04-22T09:35:53;32.70;;;29.03;;
18142;SDS011;9197;50.930;3.140;2023-04-22T09:38:21;37.97;;;31.57;;
18142;SDS011;9197;50.930;3.140;2023-04-22T09:40:49;35.67;;;31.63;;
18142;SDS011;9197;50.930;3.140;2023-04-22T09:43:17;38.60;;;31.20;;
18142;SDS011;9197;50.930;3.140;2023-04-22T09:45:45;39.13;;;31.50;;
18142;SDS011;9197;50.930;3.140;2023-04-22T09:48:13;31.70;;;28.33;;
18142;SDS011;9197;50.930;3.140;2023-04-22T09:50:42;32.83;;;28.53;;
18142;SDS011;9197;50.930;3.140;2023-04-22T09:53:10;30.27;;;27.00;;
18142;SDS011;9197;50.930;3.140;2023-04-22T09:55:39;25.23;;;22.57;;
18142;SDS011;9197;50.930;3.140;2023-04-22T09:58:07;33.63;;;28.73;;
18142;SDS011;9197;50.930;3.140;2023-04-22T10:00:39;23.17;;;20.83;;
18142;SDS011;9197;50.930;3.140;2023-04-22T10:03:06;19.37;;;17.53;;
18142;SDS011;9197;50.930;3.140;2023-04-22T10:05:34;17.93;;;16.20;;
18142;SDS011;9197;50.930;3.140;2023-04-22T10:08:02;18.67;;;16.47;;
18142;SDS011;9197;50.930;3.140;2023-04-22T10:10:33;19.07;;;17.20;;
18142;SDS011;9197;50.930;3.140;2023-04-22T10:13:03;27.97;;;22.73;;
18142;SDS011;9197;50.930;3.140;2023-04-22T10:15:31;14.13;;;12.67;;
18142;SDS011;9197;50.930;3.140;2023-04-22T10:18:06;13.50;;;12.20;;
18142;SDS011;9197;50.930;3.140;2023-04-22T10:20:34;13.50;;;12.10;;
18142;SDS011;9197;50.930;3.140;2023-04-22T10:23:02;17.13;;;14.20;;
18142;SDS011;9197;50.930;3.140;2023-04-22T10:25:30;12.03;;;10.87;;
18142;SDS011;9197;50.930;3.140;2023-04-22T10:28:00;15.93;;;14.40;;
18142;SDS011;9197;50.930;3.140;2023-04-22T10:30:30;37.83;;;24.17;;
18142;SDS011;9197;50.930;3.140;2023-04-22T10:35:42;18.40;;;15.97;;
18142;SDS011;9197;50.930;3.140;2023-04-22T10:38:28;19.30;;;17.02;;
18142;SDS011;9197;50.930;3.140;2023-04-22T10:40:58;20.27;;;18.00;;
18142;SDS011;9197;50.930;3.140;2023-04-22T10:43:39;22.33;;;20.13;;
18142;SDS011;9197;50.930;3.140;2023-04-22T10:46:06;22.53;;;20.13;;
18142;SDS011;9197;50.930;3.140;2023-04-22T10:53:59;21.40;;;19.10;;
18142;SDS011;9197;50.930;3.140;2023-04-22T10:56:26;19.80;;;17.90;;
18142;SDS011;9197;50.930;3.140;2023-04-22T10:58:54;18.93;;;16.93;;
18142;SDS011;9197;50.930;3.140;2023-04-22T11:01:22;20.63;;;18.60;;
18142;SDS011;9197;50.930;3.140;2023-04-22T11:03:49;19.93;;;18.03;;
18142;SDS011;9197;50.930;3.140;2023-04-22T11:06:17;19.83;;;17.93;;
18142;SDS011;9197;50.930;3.140;2023-04-22T11:08:46;17.03;;;15.43;;
18142;SDS011;9197;50.930;3.140;2023-04-22T11:11:17;15.40;;;13.90;;
18142;SDS011;9197;50.930;3.140;2023-04-22T11:13:45;19.33;;;17.50;;
18142;SDS011;9197;50.930;3.140;2023-04-22T11:16:14;22.13;;;19.10;;
18142;SDS011;9197;50.930;3.140;2023-04-22T11:18:41;20.47;;;17.57;;
18142;SDS011;9197;50.930;3.140;2023-04-22T11:21:12;17.20;;;15.40;;
18142;SDS011;9197;50.930;3.140;2023-04-22T11:23:47;16.87;;;15.17;;
18142;SDS011;9197;50.930;3.140;2023-04-22T11:26:16;14.20;;;12.73;;
18142;SDS011;9197;50.930;3.140;2023-04-22T11:28:44;14.77;;;12.70;;
18142;SDS011;9197;50.930;3.140;2023-04-22T11:31:12;17.27;;;15.53;;
18142;SDS011;9197;50.930;3.140;2023-04-22T11:33:40;51.47;;;33.87;;
18142;SDS011;9197;50.930;3.140;2023-04-22T11:36:08;66.40;;;50.27;;
18142;SDS011;9197;50.930;3.140;2023-04-22T11:38:36;22.33;;;20.03;;
18142;SDS011;9197;50.930;3.140;2023-04-22T11:41:04;19.20;;;17.20;;
18142;SDS011;9197;50.930;3.140;2023-04-22T11:43:32;19.97;;;17.63;;
18142;SDS011;9197;50.930;3.140;2023-04-22T11:45:59;19.50;;;17.63;;
18142;SDS011;9197;50.930;3.140;2023-04-22T11:48:29;20.03;;;18.10;;
18142;SDS011;9197;50.930;3.140;2023-04-22T11:51:08;17.87;;;16.07;;
18142;SDS011;9197;50.930;3.140;2023-04-22T11:53:36;19.60;;;17.60;;
18142;SDS011;9197;50.930;3.140;2023-04-22T11:56:05;20.63;;;18.60;;
18142;SDS011;9197;50.930;3.140;2023-04-22T11:58:37;20.37;;;18.30;;
18142;SDS011;9197;50.930;3.140;2023-04-22T12:01:05;21.13;;;18.03;;
18142;SDS011;9197;50.930;3.140;2023-04-22T12:03:37;19.80;;;17.90;;
18142;SDS011;9197;50.930;3.140;2023-04-22T12:06:05;18.83;;;16.90;;
18142;SDS011;9197;50.930;3.140;2023-04-22T12:08:32;14.63;;;13.17;;
18142;SDS011;9197;50.930;3.140;2023-04-22T12:11:01;14.77;;;13.37;;
18142;SDS011;9197;50.930;3.140;2023-04-22T12:13:29;14.47;;;13.07;;
18142;SDS011;9197;50.930;3.140;2023-04-22T12:15:58;16.27;;;14.43;;
18142;SDS011;9197;50.930;3.140;2023-04-22T12:18:29;13.60;;;12.30;;
18142;SDS011;9197;50.930;3.140;2023-04-22T12:20:59;13.53;;;12.23;;
18142;SDS011;9197;50.930;3.140;2023-04-22T12:23:26;14.63;;;13.13;;
18142;SDS011;9197;50.930;3.140;2023-04-22T12:25:54;14.43;;;12.83;;
18142;SDS011;9197;50.930;3.140;2023-04-22T12:28:21;15.20;;;13.43;;
18142;SDS011;9197;50.930;3.140;2023-04-22T12:30:48;15.10;;;13.60;;
18142;SDS011;9197;50.930;3.140;2023-04-22T12:33:17;15.40;;;13.80;;
18142;SDS011;9197;50.930;3.140;2023-04-22T12:35:44;17.63;;;13.43;;
18142;SDS011;9197;50.930;3.140;2023-04-22T12:38:14;15.43;;;13.83;;
18142;SDS011;9197;50.930;3.140;2023-04-22T12:40:41;17.80;;;16.03;;
18142;SDS011;9197;50.930;3.140;2023-04-22T12:43:09;16.87;;;15.10;;
18142;SDS011;9197;50.930;3.140;2023-04-22T12:45:36;17.03;;;15.23;;
18142;SDS011;9197;50.930;3.140;2023-04-22T12:48:03;16.37;;;14.83;;
18142;SDS011;9197;50.930;3.140;2023-04-22T12:50:32;17.90;;;16.10;;
18142;SDS011;9197;50.930;3.140;2023-04-22T12:52:59;17.27;;;15.57;;
18142;SDS011;9197;50.930;3.140;2023-04-22T12:55:26;16.70;;;14.93;;
18142;SDS011;9197;50.930;3.140;2023-04-22T12:57:54;17.53;;;15.73;;
18142;SDS011;9197;50.930;3.140;2023-04-22T13:00:22;18.00;;;16.20;;
18142;SDS011;9197;50.930;3.140;2023-04-22T13:02:49;19.63;;;17.73;;
18142;SDS011;9197;50.930;3.140;2023-04-22T13:05:17;18.00;;;15.40;;
18142;SDS011;9197;50.930;3.140;2023-04-22T13:07:46;17.43;;;15.57;;
18142;SDS011;9197;50.930;3.140;2023-04-22T13:10:14;20.93;;;16.27;;
18142;SDS011;9197;50.930;3.140;2023-04-22T13:12:41;20.37;;;15.73;;
18142;SDS011;9197;50.930;3.140;2023-04-22T13:15:09;19.27;;;17.10;;
18142;SDS011;9197;50.930;3.140;2023-04-22T13:17:36;18.97;;;16.40;;
18142;SDS011;9197;50.930;3.140;2023-04-22T13:20:04;18.00;;;16.13;;
18142;SDS011;9197;50.930;3.140;2023-04-22T13:22:33;19.53;;;16.23;;
18142;SDS011;9197;50.930;3.140;2023-04-22T13:25:02;16.27;;;14.63;;
18142;SDS011;9197;50.930;3.140;2023-04-22T13:27:30;16.77;;;15.07;;
18142;SDS011;9197;50.930;3.140;2023-04-22T13:29:57;16.27;;;14.57;;
18142;SDS011;9197;50.930;3.140;2023-04-22T13:32:25;18.13;;;16.27;;
18142;SDS011;9197;50.930;3.140;2023-04-22T13:34:52;15.37;;;13.90;;
18142;SDS011;9197;50.930;3.140;2023-04-22T13:37:19;17.80;;;15.90;;
18142;SDS011;9197;50.930;3.140;2023-04-22T13:39:47;19.37;;;17.47;;
18142;SDS011;9197;50.930;3.140;2023-04-22T13:42:15;20.53;;;18.43;;
18142;SDS011;9197;50.930;3.140;2023-04-22T13:44:43;19.20;;;17.40;;
18142;SDS011;9197;50.930;3.140;2023-04-22T13:47:10;18.87;;;16.97;;
18142;SDS011;9197;50.930;3.140;2023-04-22T13:49:37;19.47;;;17.50;;
18142;SDS011;9197;50.930;3.140;2023-04-22T13:52:04;17.43;;;15.77;;
18142;SDS011;9197;50.930;3.140;2023-04-22T13:54:32;17.67;;;16.07;;
18142;SDS011;9197;50.930;3.140;2023-04-22T13:56:59;16.50;;;14.97;;
18142;SDS011;9197;50.930;3.140;2023-04-22T13:59:29;15.40;;;13.87;;
18142;SDS011;9197;50.930;3.140;2023-04-22T14:01:56;16.90;;;14.33;;
18142;SDS011;9197;50.930;3.140;2023-04-22T14:04:23;15.20;;;13.70;;
18142;SDS011;9197;50.930;3.140;2023-04-22T14:06:51;14.57;;;13.27;;
18142;SDS011;9197;50.930;3.140;2023-04-22T14:09:18;16.57;;;14.83;;
18142;SDS011;9197;50.930;3.140;2023-04-22T14:11:45;16.70;;;15.00;;
18142;SDS011;9197;50.930;3.140;2023-04-22T14:14:12;16.37;;;14.80;;
18142;SDS011;9197;50.930;3.140;2023-04-22T14:16:41;16.57;;;14.97;;
18142;SDS011;9197;50.930;3.140;2023-04-22T14:19:08;18.43;;;16.63;;
18142;SDS011;9197;50.930;3.140;2023-04-22T14:21:35;16.60;;;15.00;;
18142;SDS011;9197;50.930;3.140;2023-04-22T14:24:02;13.27;;;11.93;;
18142;SDS011;9197;50.930;3.140;2023-04-22T14:26:29;12.80;;;11.70;;
18142;SDS011;9197;50.930;3.140;2023-04-22T14:28:57;14.20;;;12.90;;
18142;SDS011;9197;50.930;3.140;2023-04-22T14:31:24;12.77;;;11.63;;
18142;SDS011;9197;50.930;3.140;2023-04-22T14:33:53;12.87;;;11.57;;
18142;SDS011;9197;50.930;3.140;2023-04-22T14:36:20;13.17;;;12.07;;
18142;SDS011;9197;50.930;3.140;2023-04-22T14:38:49;13.00;;;11.73;;
18142;SDS011;9197;50.930;3.140;2023-04-22T14:41:16;12.43;;;11.07;;
18142;SDS011;9197;50.930;3.140;2023-04-22T14:43:44;10.87;;;9.87;;
18142;SDS011;9197;50.930;3.140;2023-04-22T14:46:11;12.03;;;10.93;;